Time;durP1;ratioP1;P1;durP2;ratioP2;P2;SDS_P1;SDS_P2;PMS_P1;PMS_P2;Temp;Humidity;BMP_temperature;BMP_pressure;BME280_temperature;BME280_humidity;BME280_pressure;Samples;Min_cycle;Max_cycle;Signal;HPM_P1;HPM_P2
2022/07/09 00:00:23;;;;;;;6.10;4.93;;;17.20;99.90;;;;;;5087598;28;20099;-50
2022/07/09 00:02:49;;;;;;;12.75;4.47;;;17.20;99.90;;;;;;5068903;28;20093;-47
2022/07/09 00:05:15;;;;;;;8.95;5.20;;;17.20;99.90;;;;;;5073926;28;20052;-46
2022/07/09 00:07:40;;;;;;;13.25;4.80;;;17.20;99.90;;;;;;5088384;28;20044;-47
2022/07/09 00:10:06;;;;;;;12.00;5.07;;;17.20;99.90;;;;;;5089403;28;20048;-50
2022/07/09 00:12:32;;;;;;;10.48;4.68;;;17.20;99.90;;;;;;5079537;28;20036;-50
2022/07/09 00:14:57;;;;;;;10.60;4.82;;;17.20;99.90;;;;;;5071920;28;20036;-50
2022/07/09 00:17:23;;;;;;;9.07;5.35;;;17.10;99.90;;;;;;5087231;28;20072;-52
2022/07/09 00:19:49;;;;;;;5.68;4.43;;;17.10;99.90;;;;;;5076707;28;20040;-51
2022/07/09 00:22:14;;;;;;;10.90;5.40;;;17.10;99.90;;;;;;5085474;28;20063;-52
2022/07/09 00:24:40;;;;;;;11.50;5.18;;;17.10;99.90;;;;;;5088165;28;20044;-49
2022/07/09 00:27:06;;;;;;;9.18;5.00;;;17.10;99.90;;;;;;5076464;28;20101;-50
2022/07/09 00:29:31;;;;;;;8.32;5.45;;;17.10;99.90;;;;;;5072746;28;20093;-51
2022/07/09 00:31:57;;;;;;;12.77;5.05;;;17.10;99.90;;;;;;5078083;28;20056;-50
2022/07/09 00:34:22;;;;;;;13.13;6.00;;;17.10;99.90;;;;;;5073106;28;20111;-51
2022/07/09 00:36:48;;;;;;;9.98;4.85;;;17.00;99.90;;;;;;5078351;28;20060;-51
2022/07/09 00:39:13;;;;;;;9.02;5.60;;;17.10;99.90;;;;;;5084836;28;20028;-53
2022/07/09 00:41:39;;;;;;;14.05;5.22;;;17.00;99.90;;;;;;5080122;28;20041;-50
2022/07/09 00:44:04;;;;;;;13.20;6.07;;;17.00;99.90;;;;;;5068920;28;20474;-49
2022/07/09 00:46:30;;;;;;;9.63;4.75;;;17.00;99.90;;;;;;5079564;28;20033;-47
2022/07/09 00:48:55;;;;;;;8.65;4.97;;;17.00;99.90;;;;;;5070001;28;20036;-47
2022/07/09 00:51:21;;;;;;;11.98;6.07;;;17.00;99.90;;;;;;5074591;28;20040;-49
2022/07/09 00:53:49;;;;;;;13.05;5.28;;;17.10;99.90;;;;;;5088647;28;20036;-48
2022/07/09 00:56:16;;;;;;;12.48;5.70;;;17.00;99.90;;;;;;5078832;28;20502;-50
2022/07/09 00:58:44;;;;;;;14.63;5.43;;;17.10;99.90;;;;;;5069522;28;20471;-52
2022/07/09 01:01:10;;;;;;;9.77;4.70;;;17.10;99.90;;;;;;5070867;28;20048;-48
2022/07/09 01:03:35;;;;;;;12.88;5.32;;;17.10;99.90;;;;;;5068590;28;20028;-52
2022/07/09 01:06:01;;;;;;;15.43;5.97;;;17.10;99.90;;;;;;5068580;28;20132;-48
2022/07/09 01:08:27;;;;;;;10.73;5.68;;;17.10;99.90;;;;;;5088713;28;20067;-53
2022/07/09 01:10:53;;;;;;;8.43;5.38;;;17.10;99.90;;;;;;5069341;28;20128;-47
2022/07/09 01:13:19;;;;;;;8.65;5.20;;;17.10;99.90;;;;;;5071573;28;20063;-50
2022/07/09 01:15:45;;;;;;;10.48;5.65;;;17.20;99.90;;;;;;5070997;28;20494;-49
2022/07/09 01:18:12;;;;;;;18.92;7.43;;;17.20;99.90;;;;;;5080111;28;20069;-49
2022/07/09 01:20:38;;;;;;;13.77;6.50;;;17.20;99.90;;;;;;5069874;28;20049;-45
2022/07/09 01:23:03;;;;;;;;;;;17.20;99.90;;;;;;5072705;28;20040;-47
2022/07/09 01:25:45;;;;;;;13.90;7.00;;;17.20;99.90;;;;;;5070874;28;19968;-51
2022/07/09 01:28:11;;;;;;;13.25;7.05;;;17.20;99.90;;;;;;5073179;28;20055;-48
2022/07/09 01:30:39;;;;;;;12.43;6.97;;;17.20;99.90;;;;;;5067045;28;20434;-49
2022/07/09 01:33:05;;;;;;;13.73;5.82;;;17.30;99.90;;;;;;5072339;28;20504;-50
2022/07/09 01:35:30;;;;;;;12.27;6.63;;;17.20;99.90;;;;;;5089332;28;20048;-50
2022/07/09 01:37:56;;;;;;;15.43;7.20;;;17.20;99.90;;;;;;5083016;28;20036;-45
2022/07/09 01:40:22;;;;;;;15.77;6.45;;;17.20;99.90;;;;;;5093451;28;20044;-46
2022/07/09 01:42:48;;;;;;;15.00;5.55;;;17.20;99.90;;;;;;5086881;28;20119;-50
2022/07/09 01:45:15;;;;;;;14.27;5.63;;;17.20;99.90;;;;;;5092742;28;20119;-50
2022/07/09 01:47:41;;;;;;;14.32;6.00;;;17.20;99.90;;;;;;5086753;28;20059;-46
2022/07/09 01:50:07;;;;;;;;;;;17.10;99.90;;;;;;5079076;28;20055;-46
2022/07/09 01:52:32;;;;;;;10.80;4.78;;;17.10;99.90;;;;;;5074219;28;20006;-49
2022/07/09 01:54:58;;;;;;;10.43;5.82;;;17.10;99.90;;;;;;5071731;28;20402;-50
2022/07/09 01:57:24;;;;;;;7.82;4.57;;;17.10;99.90;;;;;;5074705;28;20032;-49
2022/07/09 01:59:49;;;;;;;12.43;4.97;;;17.10;99.90;;;;;;5090118;28;20304;-46
2022/07/09 02:02:15;;;;;;;12.52;5.85;;;17.10;99.90;;;;;;5073859;28;20043;-46
2022/07/09 02:04:41;;;;;;;18.08;7.38;;;17.10;99.90;;;;;;5071780;28;20040;-51
2022/07/09 02:07:06;;;;;;;15.15;7.70;;;17.10;99.90;;;;;;5072910;28;20037;-46
2022/07/09 02:09:32;;;;;;;12.77;8.10;;;17.10;99.90;;;;;;5072589;28;20040;-46
2022/07/09 02:11:57;;;;;;;14.02;7.95;;;17.10;99.90;;;;;;5072285;28;20045;-46
2022/07/09 02:14:23;;;;;;;14.43;7.28;;;17.10;99.90;;;;;;5072240;28;20042;-47
2022/07/09 02:16:48;;;;;;;9.23;7.65;;;17.10;99.90;;;;;;5072076;28;20103;-46
2022/07/09 02:19:14;;;;;;;18.92;8.55;;;17.10;99.90;;;;;;5087965;28;20123;-46
2022/07/09 02:21:40;;;;;;;13.48;8.50;;;17.10;99.90;;;;;;5091948;28;20086;-46
2022/07/09 02:24:06;;;;;;;13.38;8.90;;;17.10;99.90;;;;;;5083987;28;20033;-46
2022/07/09 02:26:32;;;;;;;9.38;6.57;;;17.10;99.90;;;;;;5071906;28;20135;-46
2022/07/09 02:28:59;;;;;;;9.52;7.10;;;17.10;99.90;;;;;;5072253;28;20124;-47
2022/07/09 02:31:26;;;;;;;10.18;8.20;;;17.10;99.90;;;;;;5084884;28;20048;-47
2022/07/09 02:33:52;;;;;;;13.15;7.40;;;17.10;99.90;;;;;;5089582;28;20409;-46
2022/07/09 02:36:17;;;;;;;13.88;9.52;;;17.10;99.90;;;;;;5091141;28;20051;-47
2022/07/09 02:38:43;;;;;;;15.60;9.40;;;17.10;99.90;;;;;;5081576;28;20433;-50
2022/07/09 02:41:08;;;;;;;10.00;7.20;;;17.10;99.90;;;;;;5071988;28;20093;-50
2022/07/09 02:43:34;;;;;;;21.48;8.02;;;17.10;99.90;;;;;;5071242;28;20029;-48
2022/07/09 02:46:00;;;;;;;15.07;7.63;;;17.10;99.90;;;;;;5071864;28;20133;-46
2022/07/09 02:48:26;;;;;;;11.48;7.07;;;17.10;99.90;;;;;;5077256;28;20078;-46
2022/07/09 02:50:53;;;;;;;13.57;7.90;;;17.10;99.90;;;;;;5091906;28;20075;-49
2022/07/09 02:53:19;;;;;;;11.75;7.95;;;17.10;99.90;;;;;;5085878;28;20046;-47
2022/07/09 02:55:45;;;;;;;11.18;8.93;;;17.10;99.90;;;;;;5071859;28;20490;-45
2022/07/09 02:58:11;;;;;;;15.48;8.10;;;17.10;99.90;;;;;;5074698;28;20032;-51
2022/07/09 03:00:39;;;;;;;12.52;8.05;;;17.10;99.90;;;;;;5073993;28;20044;-51
2022/07/09 03:03:05;;;;;;;9.93;7.47;;;17.10;99.90;;;;;;5071787;28;20157;-49
2022/07/09 03:05:31;;;;;;;11.70;6.95;;;17.10;99.90;;;;;;5071875;28;20037;-48
2022/07/09 03:07:56;;;;;;;10.25;7.38;;;17.10;99.90;;;;;;5071426;28;20074;-46
2022/07/09 03:10:22;;;;;;;16.50;8.45;;;17.10;99.90;;;;;;5080390;28;20559;-46
2022/07/09 03:12:48;;;;;;;10.40;7.75;;;17.00;99.90;;;;;;5073927;28;20570;-49
2022/07/09 03:15:14;;;;;;;10.00;7.80;;;17.10;99.90;;;;;;5072763;28;20053;-48
2022/07/09 03:17:40;;;;;;;12.82;7.50;;;17.10;99.90;;;;;;5079859;28;20048;-46
2022/07/09 03:20:06;;;;;;;13.80;8.25;;;17.00;99.90;;;;;;5077709;28;20039;-46
2022/07/09 03:22:32;;;;;;;12.77;8.05;;;17.00;99.90;;;;;;5082730;28;20452;-48
2022/07/09 03:24:57;;;;;;;9.95;7.63;;;17.00;99.90;;;;;;5071476;28;20093;-46
2022/07/09 03:27:23;;;;;;;13.15;7.82;;;17.00;99.90;;;;;;5069249;28;20548;-46
2022/07/09 03:29:49;;;;;;;14.18;7.63;;;17.00;99.90;;;;;;5072450;28;20055;-46
2022/07/09 03:32:14;;;;;;;11.30;7.18;;;17.00;99.90;;;;;;5069423;28;20040;-48
2022/07/09 03:34:40;;;;;;;10.05;7.75;;;17.00;99.90;;;;;;5071300;28;20029;-46
2022/07/09 03:37:06;;;;;;;12.15;7.95;;;17.00;99.90;;;;;;5070665;28;20048;-46
2022/07/09 03:39:31;;;;;;;9.73;7.05;;;17.00;99.90;;;;;;5080056;28;20096;-51
2022/07/09 03:41:57;;;;;;;13.88;8.02;;;16.90;99.90;;;;;;5073875;28;20040;-47
2022/07/09 03:44:22;;;;;;;11.20;7.00;;;17.00;99.90;;;;;;5071075;28;20028;-47
2022/07/09 03:46:48;;;;;;;11.38;8.18;;;16.90;99.90;;;;;;5070289;28;20040;-46
2022/07/09 03:49:14;;;;;;;14.68;8.20;;;16.90;99.90;;;;;;5076843;28;20024;-52
2022/07/09 03:51:39;;;;;;;10.70;8.35;;;17.00;99.90;;;;;;5070196;28;20044;-46
2022/07/09 03:54:05;;;;;;;13.50;6.65;;;17.00;99.90;;;;;;5070296;28;20531;-45
2022/07/09 03:56:30;;;;;;;14.05;7.88;;;17.00;99.90;;;;;;5070207;28;20040;-46
2022/07/09 03:58:56;;;;;;;12.13;7.22;;;16.90;99.90;;;;;;5071205;28;20043;-46
2022/07/09 04:01:21;;;;;;;12.27;6.68;;;16.90;99.90;;;;;;5086904;28;20025;-48
2022/07/09 04:03:47;;;;;;;13.18;7.72;;;16.90;99.90;;;;;;5069187;28;20085;-52
2022/07/09 04:06:12;;;;;;;11.38;7.32;;;16.90;99.90;;;;;;5070681;28;20055;-52
2022/07/09 04:08:38;;;;;;;16.05;8.20;;;16.90;99.90;;;;;;5070578;28;20072;-52
2022/07/09 04:11:04;;;;;;;12.88;7.85;;;16.80;99.90;;;;;;5086690;28;20201;-53
2022/07/09 04:13:29;;;;;;;18.20;8.13;;;16.80;99.90;;;;;;5089115;28;20039;-52
2022/07/09 04:15:55;;;;;;;11.95;7.97;;;16.80;99.90;;;;;;5073456;28;20036;-51
2022/07/09 04:18:20;;;;;;;11.48;7.13;;;16.80;99.90;;;;;;5070009;28;20044;-51
2022/07/09 04:20:46;;;;;;;11.15;7.72;;;16.80;99.90;;;;;;5074256;28;20062;-50
2022/07/09 04:23:11;;;;;;;13.43;7.72;;;16.80;99.90;;;;;;5085423;28;20119;-52
2022/07/09 04:25:37;;;;;;;12.13;7.60;;;16.90;99.90;;;;;;5078727;28;20494;-51
2022/07/09 04:28:05;;;;;;;11.27;7.90;;;16.80;99.90;;;;;;5068612;28;20040;-51
2022/07/09 04:30:30;;;;;;;14.05;8.63;;;16.80;99.90;;;;;;5070336;28;20051;-52
2022/07/09 04:32:56;;;;;;;14.32;7.95;;;16.80;99.90;;;;;;5076500;28;20036;-51
2022/07/09 04:35:22;;;;;;;13.02;8.60;;;16.80;99.90;;;;;;5082578;28;20036;-53
2022/07/09 04:37:47;;;;;;;15.52;9.30;;;16.90;99.90;;;;;;5070794;28;20082;-50
2022/07/09 04:40:13;;;;;;;10.95;8.18;;;16.90;99.90;;;;;;5072480;28;20028;-52
2022/07/09 04:42:38;;;;;;;13.55;7.95;;;16.80;99.90;;;;;;5075747;28;20036;-53
2022/07/09 04:45:04;;;;;;;9.30;7.32;;;16.90;99.90;;;;;;5073947;28;20072;-51
2022/07/09 04:47:30;;;;;;;11.25;7.45;;;16.90;99.90;;;;;;5069523;28;20048;-51
2022/07/09 04:49:55;;;;;;;9.18;7.65;;;16.90;99.90;;;;;;5083572;28;20036;-51
2022/07/09 04:52:21;;;;;;;11.02;7.25;;;16.90;99.90;;;;;;5072278;28;20704;-52
2022/07/09 04:54:47;;;;;;;9.93;7.65;;;16.90;99.90;;;;;;5077621;28;20032;-52
2022/07/09 04:57:13;;;;;;;12.30;7.78;;;16.90;99.90;;;;;;5073705;28;20056;-52
2022/07/09 04:59:38;;;;;;;10.80;7.45;;;16.90;99.90;;;;;;5079195;28;20265;-54
2022/07/09 05:02:04;;;;;;;11.27;7.68;;;16.90;99.90;;;;;;5087128;28;20117;-52
2022/07/09 05:04:30;;;;;;;15.68;8.52;;;16.90;99.90;;;;;;5080605;28;20033;-53
2022/07/09 05:06:56;;;;;;;12.82;7.55;;;17.00;99.90;;;;;;5069323;28;20080;-52
2022/07/09 05:09:22;;;;;;;11.50;7.45;;;17.00;99.90;;;;;;5079384;28;20409;-53
2022/07/09 05:11:47;;;;;;;11.00;8.45;;;17.00;99.90;;;;;;5091891;28;20043;-51
2022/07/09 05:14:13;;;;;;;13.95;9.43;;;17.00;99.90;;;;;;5087964;28;20086;-51
2022/07/09 05:16:44;;;;;;;;;;;17.00;99.90;;;;;;5073190;28;20045;-53
2022/07/09 05:19:10;;;;;;;14.20;7.32;;;17.00;99.90;;;;;;5090200;28;19923;-52
2022/07/09 05:21:36;;;;;;;11.98;6.68;;;17.00;99.90;;;;;;5073589;28;20520;-54
2022/07/09 05:24:02;;;;;;;11.82;8.35;;;17.00;99.90;;;;;;5088218;28;20047;-51
2022/07/09 05:26:29;;;;;;;11.27;7.22;;;17.10;99.90;;;;;;5077524;28;20044;-51
2022/07/09 05:28:55;;;;;;;10.73;7.63;;;17.10;99.90;;;;;;5076582;28;20115;-51
2022/07/09 05:31:20;;;;;;;8.82;7.25;;;17.10;99.90;;;;;;5089237;28;20123;-54
2022/07/09 05:33:47;;;;;;;9.95;6.28;;;17.20;99.90;;;;;;5089705;28;20050;-51
2022/07/09 05:36:13;;;;;;;8.80;6.03;;;17.20;99.90;;;;;;5073907;28;20052;-52
2022/07/09 05:38:38;;;;;;;16.92;8.23;;;17.20;99.90;;;;;;5089540;28;20448;-51
2022/07/09 05:41:04;;;;;;;11.15;7.57;;;17.20;99.90;;;;;;5076545;28;20097;-52
2022/07/09 05:43:30;;;;;;;10.57;8.85;;;17.20;99.90;;;;;;5073268;28;20044;-53
2022/07/09 05:45:55;;;;;;;10.77;6.20;;;17.20;99.90;;;;;;5089588;28;20116;-50
2022/07/09 05:48:21;;;;;;;8.68;6.68;;;17.30;99.90;;;;;;5089565;28;20040;-52
2022/07/09 05:50:47;;;;;;;11.25;7.38;;;17.30;99.90;;;;;;5084929;28;20036;-50
2022/07/09 05:53:12;;;;;;;12.32;7.13;;;17.30;99.90;;;;;;5091889;28;20447;-51
2022/07/09 05:55:38;;;;;;;10.02;6.03;;;17.30;99.90;;;;;;5082140;28;20458;-53
2022/07/09 05:58:04;;;;;;;13.45;7.55;;;17.40;99.90;;;;;;5072307;28;20056;-53
2022/07/09 06:00:29;;;;;;;13.95;7.20;;;17.40;99.90;;;;;;5085062;28;20036;-53
2022/07/09 06:02:55;;;;;;;12.93;7.10;;;17.40;99.90;;;;;;5092025;28;20446;-51
2022/07/09 06:05:20;;;;;;;8.73;6.40;;;17.40;99.90;;;;;;5087675;28;20082;-53
2022/07/09 06:07:46;;;;;;;9.40;6.32;;;17.40;99.90;;;;;;5072470;28;20442;-53
2022/07/09 06:10:14;;;;;;;;;;;17.40;99.90;;;;;;5084747;28;20405;-52
2022/07/09 06:12:40;;;;;;;;;;;17.40;99.90;;;;;;5093322;28;19920;-51
2022/07/09 06:15:06;;;;;;;9.02;5.93;;;17.40;99.90;;;;;;5084812;28;20024;-52
2022/07/09 06:17:32;;;;;;;;;;;17.40;99.90;;;;;;5075465;28;20425;-52
2022/07/09 06:19:57;;;;;;;8.00;5.72;;;17.40;99.90;;;;;;5073783;28;19916;-52
2022/07/09 06:22:23;;;;;;;9.65;6.30;;;17.50;99.90;;;;;;5072528;28;20445;-51
2022/07/09 06:24:48;;;;;;;13.23;5.00;;;17.50;99.90;;;;;;5071113;28;20044;-53
2022/07/09 06:27:14;;;;;;;7.45;5.43;;;17.60;99.90;;;;;;5086745;28;20046;-53
2022/07/09 06:29:39;;;;;;;5.88;4.50;;;17.60;99.90;;;;;;5083538;28;20111;-51
2022/07/09 06:32:06;;;;;;;11.63;6.00;;;17.60;99.90;;;;;;5076123;28;20090;-52
2022/07/09 06:34:31;;;;;;;;;;;17.60;99.90;;;;;;5088306;28;20085;-52
2022/07/09 06:36:57;;;;;;;7.65;4.50;;;17.70;99.90;;;;;;5084342;28;20335;-52
2022/07/09 06:42:07;;;;;;;11.32;4.53;;;17.70;99.90;;;;;;5081371;28;20400;-51
2022/07/09 06:44:34;;;;;;;5.95;3.47;;;17.80;99.90;;;;;;5091126;28;20115;-54
2022/07/09 06:46:59;;;;;;;5.22;3.67;;;17.80;99.90;;;;;;5088363;28;20040;-53
2022/07/09 06:49:25;;;;;;;6.35;4.53;;;17.80;99.90;;;;;;5076857;28;20612;-52
2022/07/09 06:51:51;;;;;;;7.63;4.57;;;17.90;99.90;;;;;;5076949;28;20048;-53
2022/07/09 06:54:16;;;;;;;6.78;3.75;;;17.90;99.90;;;;;;5071732;28;20037;-52
2022/07/09 06:56:42;;;;;;;8.30;3.38;;;17.90;99.90;;;;;;5079621;28;20044;-53
2022/07/09 06:59:07;;;;;;;7.30;3.55;;;18.00;99.90;;;;;;5092183;28;20040;-51
2022/07/09 07:01:33;;;;;;;6.50;3.65;;;18.00;99.90;;;;;;5091573;28;20584;-52
2022/07/09 07:03:58;;;;;;;5.75;3.05;;;18.00;99.90;;;;;;5081281;28;20603;-49
2022/07/09 07:06:24;;;;;;;9.48;3.58;;;18.00;99.90;;;;;;5071371;28;20048;-49
2022/07/09 07:08:49;;;;;;;5.70;3.38;;;18.00;99.90;;;;;;5071761;28;20048;-52
2022/07/09 07:11:15;;;;;;;5.00;2.80;;;18.10;99.90;;;;;;5070135;28;20059;-51
2022/07/09 07:13:41;;;;;;;10.93;3.22;;;18.10;99.90;;;;;;5070788;28;20044;-54
2022/07/09 07:16:07;;;;;;;6.82;3.08;;;18.10;99.90;;;;;;5071255;28;20052;-50
2022/07/09 07:18:32;;;;;;;6.07;3.22;;;18.10;99.90;;;;;;5070932;28;20036;-51
2022/07/09 07:20:58;;;;;;;5.10;2.72;;;18.20;99.90;;;;;;5071341;28;20111;-50
2022/07/09 07:23:23;;;;;;;7.10;3.38;;;18.20;99.90;;;;;;5079725;28;20040;-52
2022/07/09 07:25:49;;;;;;;5.43;2.75;;;18.20;99.90;;;;;;5077833;28;20117;-54
2022/07/09 07:28:14;;;;;;;6.82;2.78;;;18.30;99.90;;;;;;5071214;28;20489;-53
2022/07/09 07:30:40;;;;;;;6.40;3.42;;;18.30;99.90;;;;;;5069122;28;20151;-52
2022/07/09 07:33:06;;;;;;;5.57;3.83;;;18.30;99.90;;;;;;5070237;28;20036;-49
2022/07/09 07:35:31;;;;;;;4.40;2.78;;;18.40;99.90;;;;;;5078640;28;20095;-51
2022/07/09 07:37:58;;;;;;;6.30;3.40;;;18.40;99.90;;;;;;5091089;28;20044;-51
2022/07/09 07:40:24;;;;;;;7.13;3.70;;;18.50;99.90;;;;;;5083542;28;20505;-48
2022/07/09 07:42:50;;;;;;;5.47;2.65;;;18.50;99.90;;;;;;5071134;28;20036;-48
2022/07/09 07:45:16;;;;;;;5.35;3.17;;;18.50;99.90;;;;;;5079362;28;20039;-51
2022/07/09 07:47:41;;;;;;;8.75;3.00;;;18.60;99.90;;;;;;5083295;28;20036;-53
2022/07/09 07:50:08;;;;;;;4.25;2.95;;;18.60;99.90;;;;;;5090443;28;20116;-49
2022/07/09 07:52:33;;;;;;;5.18;2.33;;;18.60;99.90;;;;;;5084820;28;20039;-50
2022/07/09 07:54:59;;;;;;;2.80;1.73;;;18.60;99.90;;;;;;5081328;28;20039;-49
2022/07/09 07:57:24;;;;;;;3.58;2.00;;;18.60;99.90;;;;;;5085393;28;20036;-49
2022/07/09 07:59:50;;;;;;;6.53;2.92;;;18.60;99.90;;;;;;5088261;28;20036;-52
2022/07/09 08:02:15;;;;;;;2.85;1.90;;;18.60;99.90;;;;;;5070460;28;20036;-51
2022/07/09 08:04:42;;;;;;;5.40;2.33;;;18.60;99.90;;;;;;5082696;28;20044;-50
2022/07/09 08:07:07;;;;;;;;;;;18.70;99.90;;;;;;5081091;28;20123;-53
2022/07/09 08:09:33;;;;;;;3.53;1.65;;;18.70;99.90;;;;;;5070418;28;20000;-50
2022/07/09 08:12:00;;;;;;;3.88;1.60;;;18.70;99.90;;;;;;5068901;28;20037;-51
2022/07/09 08:14:26;;;;;;;5.00;1.98;;;18.70;99.90;;;;;;5069044;28;20037;-53
2022/07/09 08:16:51;;;;;;;5.68;1.50;;;18.70;99.90;;;;;;5071122;28;20382;-53
2022/07/09 08:19:17;;;;;;;2.10;1.75;;;18.70;99.90;;;;;;5070230;28;20113;-50
2022/07/09 08:21:44;;;;;;;2.28;1.13;;;18.70;99.90;;;;;;5069056;28;20048;-51
2022/07/09 08:24:09;;;;;;;2.08;1.25;;;18.70;99.90;;;;;;5072837;28;20040;-51
2022/07/09 08:26:35;;;;;;;4.07;1.35;;;18.70;99.90;;;;;;5070045;28;20048;-52
2022/07/09 08:29:00;;;;;;;2.25;1.00;;;18.70;99.90;;;;;;5080521;28;20545;-51
2022/07/09 08:31:26;;;;;;;1.58;1.20;;;18.70;99.90;;;;;;5074741;28;20052;-51
2022/07/09 08:33:52;;;;;;;4.68;2.45;;;18.80;99.90;;;;;;5075756;28;20040;-52
2022/07/09 08:36:18;;;;;;;2.08;1.15;;;18.80;99.90;;;;;;5069590;28;20494;-51
2022/07/09 08:38:44;;;;;;;2.47;1.40;;;18.90;99.90;;;;;;5077224;28;20036;-51
2022/07/09 08:41:11;;;;;;;3.50;1.65;;;18.90;99.90;;;;;;5089389;28;20568;-52
2022/07/09 08:43:38;;;;;;;3.95;1.73;;;19.00;99.90;;;;;;5085168;28;20048;-53
2022/07/09 08:46:04;;;;;;;4.50;1.60;;;19.00;99.90;;;;;;5088080;28;20093;-51
2022/07/09 08:48:34;;;;;;;;;;;19.10;99.90;;;;;;5088491;28;20104;-53
2022/07/09 08:51:01;;;;;;;4.40;1.58;;;19.20;99.90;;;;;;5069805;28;20282;-50
2022/07/09 08:53:30;;;;;;;6.15;1.42;;;19.30;99.90;;;;;;5078891;28;20048;-50
2022/07/09 08:55:57;;;;;;;2.20;1.30;;;19.40;99.90;;;;;;5075661;28;20048;-53
2022/07/09 08:58:23;;;;;;;1.77;0.88;;;19.50;99.90;;;;;;5077576;28;20036;-53
2022/07/09 09:00:49;;;;;;;;;;;19.60;99.90;;;;;;5074777;28;20098;-51
2022/07/09 09:03:16;;;;;;;1.17;1.08;;;19.60;99.90;;;;;;5070345;28;19916;-52
2022/07/09 09:05:41;;;;;;;4.90;1.00;;;19.70;99.90;;;;;;5069362;28;20106;-52
2022/07/09 09:08:18;;;;;;;4.10;1.23;;;19.70;99.90;;;;;;5075537;28;20036;-50
2022/07/09 09:10:48;;;;;;;2.42;0.95;;;19.80;99.90;;;;;;5080065;28;20064;-51
2022/07/09 09:13:18;;;;;;;1.65;0.90;;;19.80;99.90;;;;;;5074295;28;20032;-52
2022/07/09 09:15:44;;;;;;;2.17;0.90;;;19.80;99.90;;;;;;5086877;28;20486;-48
2022/07/09 09:18:10;;;;;;;3.17;0.70;;;19.80;99.90;;;;;;5084184;28;20086;-51
2022/07/09 09:20:36;;;;;;;1.27;0.75;;;19.80;99.90;;;;;;5069281;28;20505;-50
2022/07/09 09:23:04;;;;;;;3.78;0.90;;;19.90;99.90;;;;;;5069167;28;20040;-49
2022/07/09 09:25:30;;;;;;;1.00;0.70;;;19.90;99.90;;;;;;5069553;28;20512;-50
2022/07/09 09:27:57;;;;;;;2.00;0.55;;;19.90;99.90;;;;;;5069787;28;20044;-48
2022/07/09 09:30:25;;;;;;;3.10;0.70;;;20.00;99.90;;;;;;5069314;28;20043;-50
2022/07/09 09:33:01;;;;;;;3.28;0.70;;;20.10;99.90;;;;;;5084963;28;20043;-52
2022/07/09 09:35:29;;;;;;;4.63;1.02;;;20.20;99.90;;;;;;5070293;28;20079;-47
2022/07/09 09:37:56;;;;;;;5.25;0.75;;;20.30;99.90;;;;;;5076635;28;20047;-53
2022/07/09 09:40:25;;;;;;;8.25;1.00;;;20.30;99.90;;;;;;5085827;28;20036;-52
2022/07/09 09:42:52;;;;;;;202.90;13.43;;;20.50;99.90;;;;;;5087173;28;20416;-52
2022/07/09 09:45:18;;;;;;;1.58;0.50;;;20.50;99.90;;;;;;5078039;28;20043;-51
2022/07/09 09:47:50;;;;;;;;;;;20.60;99.90;;;;;;5068404;28;20082;-48
2022/07/09 09:50:21;;;;;;;4.57;0.50;;;20.60;99.90;;;;;;5069619;28;19920;-54
2022/07/09 09:52:48;;;;;;;2.05;0.40;;;20.70;99.90;;;;;;5068496;28;20040;-52
2022/07/09 09:55:16;;;;;;;0.90;0.40;;;20.70;99.90;;;;;;5077695;28;20488;-52
2022/07/09 09:57:41;;;;;;;2.80;0.55;;;20.80;99.90;;;;;;5072724;28;20142;-53
2022/07/09 10:00:08;;;;;;;;;;;20.90;99.90;;;;;;5074616;28;20653;-52
2022/07/09 10:02:35;;;;;;;0.70;0.30;;;21.00;99.90;;;;;;5081269;28;19973;-53
2022/07/09 10:05:01;;;;;;;3.60;0.35;;;21.00;99.90;;;;;;5092434;28;20040;-52
2022/07/09 10:07:28;;;;;;;0.52;0.30;;;21.00;99.90;;;;;;5089523;28;20074;-52
2022/07/09 10:09:58;;;;;;;3.95;0.35;;;20.90;99.90;;;;;;5073832;28;20071;-48
2022/07/09 10:12:30;;;;;;;1.25;0.30;;;21.00;99.90;;;;;;5076372;28;20032;-52
2022/07/09 10:14:57;;;;;;;4.38;0.60;;;21.00;99.90;;;;;;5091263;28;20048;-48
2022/07/09 10:17:24;;;;;;;2.20;0.47;;;21.10;99.90;;;;;;5084323;28;20519;-53
2022/07/09 10:19:54;;;;;;;1.30;0.35;;;21.10;99.90;;;;;;5082871;28;20032;-50
2022/07/09 10:22:43;;;;;;;0.68;0.38;;;21.10;99.90;;;;;;5073758;28;20028;-54
2022/07/09 10:25:21;;;;;;;1.70;0.30;;;21.10;99.90;;;;;;5054738;28;20041;-47
2022/07/09 10:27:48;;;;;;;1.98;0.30;;;21.10;99.90;;;;;;5080829;28;20401;-49
2022/07/09 10:30:28;;;;;;;3.42;0.73;;;21.00;99.90;;;;;;5092527;28;20032;-52
2022/07/09 10:33:19;;;;;;;2.20;0.50;;;21.00;99.90;;;;;;5080880;28;20044;-48
2022/07/09 10:35:52;;;;;;;1.63;0.30;;;21.10;99.90;;;;;;5091920;28;20413;-53
2022/07/09 10:38:19;;;;;;;0.77;0.30;;;21.20;99.90;;;;;;5086799;28;20071;-52
2022/07/09 10:40:56;;;;;;;0.93;0.30;;;21.20;99.90;;;;;;5091469;28;20072;-49
2022/07/09 10:43:38;;;;;;;0.77;0.25;;;21.30;99.90;;;;;;5081183;28;20040;-52
2022/07/09 10:46:11;;;;;;;1.75;0.22;;;21.40;99.90;;;;;;5070111;28;20053;-49
2022/07/09 10:48:36;;;;;;;3.00;0.50;;;21.30;99.90;;;;;;5084458;28;20055;-48
2022/07/09 10:51:02;;;;;;;;;;;21.30;99.90;;;;;;5088659;28;20493;-52
2022/07/09 10:53:29;;;;;;;3.00;0.30;;;21.40;99.90;;;;;;5076849;28;19923;-53
2022/07/09 10:55:55;;;;;;;4.25;0.30;;;21.40;99.90;;;;;;5091975;28;20345;-48
2022/07/09 10:58:21;;;;;;;;;;;21.40;99.90;;;;;;5085902;28;20111;-49
2022/07/09 11:00:57;;;;;;;2.22;0.40;;;21.40;99.90;;;;;;5071272;28;19916;-53
2022/07/09 11:03:26;;;;;;;2.10;0.38;;;21.40;99.90;;;;;;5072675;28;20390;-51
2022/07/09 11:05:52;;;;;;;0.60;0.20;;;21.50;99.90;;;;;;5076309;28;20032;-48
2022/07/09 11:08:18;;;;;;;;;;;21.50;99.90;;;;;;5087041;28;20493;-54
2022/07/09 11:10:43;;;;;;;2.67;0.38;;;21.40;99.90;;;;;;5080050;28;20396;-53
2022/07/09 11:13:09;;;;;;;;;;;21.50;99.90;;;;;;5091237;28;20074;-54
2022/07/09 11:15:36;;;;;;;2.00;0.30;;;21.50;99.90;;;;;;5087469;28;20407;-54
2022/07/09 11:18:13;;;;;;;3.88;0.32;;;21.50;99.90;;;;;;5090441;28;20177;-48
2022/07/09 11:20:44;;;;;;;2.38;0.30;;;21.60;99.90;;;;;;5091678;28;20107;-51
2022/07/09 11:23:11;;;;;;;1.38;0.20;;;21.60;99.90;;;;;;5090318;28;20074;-50
2022/07/09 11:25:37;;;;;;;4.18;0.55;;;21.50;99.90;;;;;;5091272;28;20081;-47
2022/07/09 11:28:03;;;;;;;;;;;21.40;99.90;;;;;;5091014;28;20043;-52
2022/07/09 11:30:30;;;;;;;3.83;0.65;;;21.30;99.90;;;;;;5089621;28;20002;-53
2022/07/09 11:32:56;;;;;;;3.03;0.25;;;21.20;99.90;;;;;;5090252;28;20044;-48
2022/07/09 11:35:28;;;;;;;;;;;21.20;99.90;;;;;;5085470;28;20033;-51
2022/07/09 11:37:55;;;;;;;3.15;0.30;;;21.30;99.90;;;;;;5070562;28;20305;-47
2022/07/09 11:40:21;;;;;;;1.85;0.30;;;21.30;99.90;;;;;;5075776;28;20036;-51
2022/07/09 11:42:46;;;;;;;;;;;21.40;99.90;;;;;;5071456;28;20109;-53
2022/07/09 11:45:12;;;;;;;1.80;0.30;;;21.60;99.90;;;;;;5076782;28;19916;-48
2022/07/09 11:47:40;;;;;;;;;;;21.70;99.90;;;;;;5071210;28;20454;-48
2022/07/09 11:50:10;;;;;;;1.30;0.20;;;21.70;99.90;;;;;;5077442;28;19924;-51
2022/07/09 11:52:36;;;;;;;1.88;0.40;;;21.80;99.90;;;;;;5073047;28;20041;-50
2022/07/09 11:55:07;;;;;;;2.38;0.45;;;21.80;99.90;;;;;;5080494;28;20122;-51
2022/07/09 11:57:35;;;;;;;4.13;0.55;;;21.80;99.90;;;;;;5090736;28;20055;-53
2022/07/09 12:00:05;;;;;;;3.50;0.20;;;21.70;99.90;;;;;;5074665;28;20406;-53
2022/07/09 12:02:38;;;;;;;0.70;0.20;;;21.70;99.90;;;;;;5089526;28;20080;-53
2022/07/09 12:05:08;;;;;;;2.70;0.40;;;21.70;99.90;;;;;;5084625;28;20131;-54
2022/07/09 12:07:35;;;;;;;5.65;0.30;;;21.80;99.90;;;;;;5090004;28;20032;-49
2022/07/09 12:10:09;;;;;;;6.30;0.73;;;21.80;99.90;;;;;;5084417;28;20047;-52
2022/07/09 12:12:36;;;;;;;3.47;0.85;;;21.90;99.90;;;;;;5090864;28;20073;-48
2022/07/09 12:15:03;;;;;;;3.47;0.88;;;21.90;99.90;;;;;;5079775;28;20510;-49
2022/07/09 12:17:30;;;;;;;2.78;0.50;;;21.80;99.90;;;;;;5069606;28;20089;-51
2022/07/09 12:19:57;;;;;;;6.15;0.60;;;21.80;99.90;;;;;;5072852;28;20119;-49
2022/07/09 12:22:23;;;;;;;5.03;0.57;;;21.80;99.90;;;;;;5069872;28;20090;-52
2022/07/09 12:24:50;;;;;;;15.95;0.90;;;21.80;99.90;;;;;;5075328;28;20024;-54
2022/07/09 12:27:16;;;;;;;2.78;0.43;;;21.70;99.90;;;;;;5088162;28;20059;-51
2022/07/09 12:29:41;;;;;;;;;;;21.70;99.90;;;;;;5088691;28;20449;-49
2022/07/09 12:32:07;;;;;;;3.50;0.30;;;21.70;99.90;;;;;;5078229;28;19927;-50
2022/07/09 12:34:33;;;;;;;;;;;21.60;99.90;;;;;;5069872;28;20138;-52
2022/07/09 12:36:58;;;;;;;5.72;0.65;;;21.50;99.90;;;;;;5070642;28;19928;-52
2022/07/09 12:39:24;;;;;;;;;;;21.40;99.90;;;;;;5070500;28;20033;-54
2022/07/09 12:41:50;;;;;;;7.07;0.55;;;21.30;99.90;;;;;;5084488;28;20037;-47
2022/07/09 12:44:15;;;;;;;;;;;21.30;99.90;;;;;;5079782;28;20489;-50
2022/07/09 12:46:41;;;;;;;2.90;0.70;;;21.30;99.90;;;;;;5087909;28;20270;-50